Time;durP1;ratioP1;P1;durP2;ratioP2;P2;SDS_P1;SDS_P2;PMS_P1;PMS_P2;Temp;Humidity;BMP_temperature;BMP_pressure;BME280_temperature;BME280_humidity;BME280_pressure;Samples;Min_cycle;Max_cycle;Signal;HPM_P1;HPM_P2
2022/09/26 00:00:44;;;;;;;9.80;4.10;;;;;;;13.14;83.31;100147.41;4983824;28;20668;-66
2022/09/26 00:03:12;;;;;;;8.40;4.10;;;;;;;13.10;83.13;100146.09;4981094;28;20624;-66
2022/09/26 00:05:41;;;;;;;7.10;3.93;;;;;;;13.04;83.07;100136.09;4979722;28;20209;-66
2022/09/26 00:08:09;;;;;;;7.87;4.03;;;;;;;13.01;82.78;100139.13;4980886;28;20215;-65
2022/09/26 00:10:37;;;;;;;12.03;4.07;;;;;;;12.95;82.71;100139.78;4982590;28;20213;-66
2022/09/26 00:13:04;;;;;;;8.77;4.33;;;;;;;13.01;82.56;100136.47;4982097;28;20642;-66
2022/09/26 00:15:32;;;;;;;11.27;4.00;;;;;;;13.07;82.03;100141.09;4987321;28;20225;-66
2022/09/26 00:18:00;;;;;;;8.43;4.30;;;;;;;13.17;81.78;100131.09;4981679;28;20685;-66
2022/09/26 00:20:27;;;;;;;8.03;4.00;;;;;;;13.14;81.81;100130.59;4984451;28;20212;-66
2022/09/26 00:22:56;;;;;;;11.43;4.63;;;;;;;13.16;81.95;100132.09;4979990;28;20207;-65
2022/09/26 00:25:25;;;;;;;10.33;4.97;;;;;;;13.05;82.04;100132.44;4983394;28;20559;-67
2022/09/26 00:27:53;;;;;;;8.63;4.43;;;;;;;12.98;82.61;100134.13;4984321;28;22133;-66
2022/09/26 00:30:21;;;;;;;8.07;4.27;;;;;;;12.98;83.49;100131.47;4977861;28;20220;-66
2022/09/26 00:32:48;;;;;;;10.70;4.50;;;;;;;12.93;83.69;100136.47;4980918;28;20234;-67
2022/09/26 00:35:16;;;;;;;7.90;4.73;;;;;;;12.91;84.39;100138.47;4979466;28;20235;-66
2022/09/26 00:37:44;;;;;;;9.03;5.00;;;;;;;13.03;83.89;100133.59;4976650;28;20217;-66
2022/09/26 00:40:12;;;;;;;8.30;4.33;;;;;;;13.05;83.11;100137.75;4979462;28;20293;-65
2022/09/26 00:42:40;;;;;;;10.90;5.47;;;;;;;13.07;83.18;100133.09;4985177;28;20291;-66
2022/09/26 00:45:10;;;;;;;8.90;4.37;;;;;;;13.24;82.27;100130.41;4979489;28;20243;-66
2022/09/26 00:47:46;;;;;;;9.60;4.40;;;;;;;13.37;81.39;100136.81;4983201;28;20198;-65
2022/09/26 00:50:18;;;;;;;8.40;4.30;;;;;;;13.39;81.23;100126.81;4978983;28;20215;-66
2022/09/26 00:52:50;;;;;;;10.50;5.27;;;;;;;13.30;81.54;100119.88;4984056;28;20233;-66
2022/09/26 00:55:23;;;;;;;10.20;4.53;;;;;;;13.35;81.26;100122.88;4981635;28;21876;-66
2022/09/26 00:57:57;;;;;;;10.27;4.37;;;;;;;13.39;80.83;100118.00;4981987;28;20261;-66
2022/09/26 01:00:26;;;;;;;12.50;4.73;;;;;;;13.34;81.10;100115.03;4979101;28;20215;-67
2022/09/26 01:02:54;;;;;;;10.17;4.73;;;;;;;13.37;81.21;100114.72;4985063;28;20296;-66
2022/09/26 01:05:23;;;;;;;6.20;4.27;;;;;;;13.28;81.32;100105.09;4984297;28;20665;-66
2022/09/26 01:07:53;;;;;;;9.53;4.70;;;;;;;13.22;81.92;100105.78;4983641;28;20223;-66
2022/09/26 01:10:23;;;;;;;12.23;5.33;;;;;;;13.21;81.98;100104.13;4981820;28;20344;-66
2022/09/26 01:12:51;;;;;;;7.37;4.30;;;;;;;13.23;82.06;100096.78;4983358;28;20236;-64
2022/09/26 01:15:19;;;;;;;12.27;4.77;;;;;;;13.32;81.82;100096.56;4983129;28;20250;-65
2022/09/26 01:17:47;;;;;;;7.93;4.47;;;;;;;13.41;81.19;100098.19;4983834;28;20202;-65
2022/09/26 01:20:26;;;;;;;10.07;5.37;;;;;;;13.41;80.06;100094.69;4990295;28;20218;-65
2022/09/26 01:23:33;;;;;;;9.87;4.77;;;;;;;13.42;80.08;100096.34;4986530;28;20214;-64
2022/09/26 01:26:38;;;;;;;12.53;4.60;;;;;;;13.19;80.85;100089.13;4983727;28;20209;-65
2022/09/26 01:30:00;;;;;;;10.10;4.60;;;;;;;13.18;81.17;100084.84;4981216;28;20241;-66
2022/09/26 01:32:49;;;;;;;8.47;4.17;;;;;;;13.29;80.31;100080.09;4984005;28;20239;-66
2022/09/26 01:35:33;;;;;;;10.90;4.87;;;;;;;13.30;80.21;100081.78;4984621;28;20936;-66
2022/09/26 01:38:11;;;;;;;9.87;4.97;;;;;;;13.40;79.79;100085.03;4987437;28;20229;-65
2022/09/26 01:40:47;;;;;;;10.63;4.80;;;;;;;13.46;79.08;100087.00;4990153;28;20206;-65
2022/09/26 01:43:25;;;;;;;10.10;5.97;;;;;;;13.44;79.32;100089.84;4985319;28;20206;-65
2022/09/26 01:45:58;;;;;;;8.67;4.57;;;;;;;13.44;79.48;100089.03;4984357;28;20249;-64
2022/09/26 01:48:32;;;;;;;14.03;5.10;;;;;;;13.43;79.29;100082.03;4983181;28;20321;-66
2022/09/26 01:51:04;;;;;;;12.60;5.13;;;;;;;13.48;79.22;100074.34;4986990;28;20213;-65
2022/09/26 01:53:40;;;;;;;8.93;5.07;;;;;;;13.47;79.31;100078.84;4984934;28;20220;-66
2022/09/26 01:56:13;;;;;;;13.33;5.40;;;;;;;13.47;79.43;100072.69;4979520;28;20218;-65
2022/09/26 01:58:45;;;;;;;10.23;4.90;;;;;;;13.47;79.98;100068.19;4988063;28;20868;-66
2022/09/26 02:01:16;;;;;;;11.20;5.37;;;;;;;13.41;80.27;100073.38;4986300;28;20679;-65
2022/09/26 02:03:51;;;;;;;8.43;5.40;;;;;;;13.24;81.35;100069.16;4987063;28;20202;-66
2022/09/26 02:06:23;;;;;;;12.37;5.20;;;;;;;13.26;82.46;100072.50;4980422;28;21020;-66
2022/09/26 02:08:57;;;;;;;7.67;4.93;;;;;;;13.18;82.22;100068.88;4984021;28;20218;-66
2022/09/26 02:11:25;;;;;;;13.40;6.30;;;;;;;13.10;82.34;100068.88;4985863;28;20222;-66
2022/09/26 02:14:01;;;;;;;9.90;5.20;;;;;;;13.01;82.80;100050.47;4986600;28;20242;-66
2022/09/26 02:16:35;;;;;;;8.73;5.27;;;;;;;12.93;82.87;100053.16;4986766;28;20695;-66
2022/09/26 02:19:10;;;;;;;9.27;5.40;;;;;;;12.88;83.18;100051.00;4981452;28;20209;-66
2022/09/26 02:21:38;;;;;;;9.87;5.20;;;;;;;12.87;83.44;100053.84;4986057;28;20792;-66
2022/09/26 02:24:06;;;;;;;12.03;6.17;;;;;;;12.82;83.62;100049.88;4988349;28;20612;-65
2022/09/26 02:26:34;;;;;;;11.87;6.33;;;;;;;12.82;83.65;100049.03;4994871;28;20680;-66
2022/09/26 02:29:02;;;;;;;12.17;6.23;;;;;;;12.82;83.49;100043.72;4992356;28;20225;-66
2022/09/26 02:31:34;;;;;;;8.47;6.07;;;;;;;12.73;83.40;100042.94;4979820;28;20230;-65
2022/09/26 02:34:04;;;;;;;9.03;5.70;;;;;;;12.85;83.40;100035.38;4965067;28;20281;-66
2022/09/26 02:36:33;;;;;;;11.83;6.07;;;;;;;12.88;82.48;100029.72;4964205;28;20821;-66
2022/09/26 02:39:01;;;;;;;10.10;6.47;;;;;;;12.87;82.15;100032.53;4967393;28;20214;-65
2022/09/26 02:41:39;;;;;;;11.30;5.63;;;;;;;12.81;82.06;100028.75;4961613;28;20218;-66
2022/09/26 02:44:28;;;;;;;12.80;5.97;;;;;;;12.82;81.58;100015.28;4965100;28;20206;-64
2022/09/26 02:47:33;;;;;;;12.27;5.90;;;;;;;12.72;81.71;100013.81;4964742;28;20210;-66
2022/09/26 02:50:23;;;;;;;13.70;5.83;;;;;;;12.75;81.63;100002.84;4946742;28;20226;-66
2022/09/26 02:53:00;;;;;;;11.13;6.23;;;;;;;12.78;81.51;100000.66;4968131;28;20222;-66
2022/09/26 02:55:38;;;;;;;12.73;6.63;;;;;;;12.78;81.50;100002.47;4964094;28;20219;-66
2022/09/26 02:58:15;;;;;;;15.63;7.20;;;;;;;12.90;81.44;100002.94;4960959;28;20211;-66
2022/09/26 03:00:56;;;;;;;12.47;6.70;;;;;;;13.02;80.97;100002.34;4966121;28;20215;-66
2022/09/26 03:03:31;;;;;;;11.47;7.03;;;;;;;13.09;80.51;100005.16;4975390;28;20644;-66
2022/09/26 03:06:02;;;;;;;10.33;6.90;;;;;;;13.14;80.30;99997.50;4968993;28;20719;-66
2022/09/26 03:08:36;;;;;;;12.80;6.30;;;;;;;13.27;79.45;99999.59;4964091;28;20214;-66
2022/09/26 03:11:09;;;;;;;13.10;7.27;;;;;;;13.26;78.89;99995.28;4960808;28;20621;-66
2022/09/26 03:13:39;;;;;;;12.10;7.00;;;;;;;13.25;79.06;99993.63;4961720;28;20219;-66
2022/09/26 03:16:09;;;;;;;15.03;6.93;;;;;;;13.31;78.09;99984.91;4961417;28;20680;-65
2022/09/26 03:18:44;;;;;;;12.13;7.33;;;;;;;13.27;78.28;99991.59;4963164;28;20211;-66
2022/09/26 03:21:13;;;;;;;10.00;6.60;;;;;;;13.25;78.26;99988.28;4965640;28;20281;-66
2022/09/26 03:23:41;;;;;;;12.37;7.33;;;;;;;13.30;77.87;99978.75;4965773;28;20211;-65
2022/09/26 03:26:11;;;;;;;13.67;7.03;;;;;;;13.22;77.44;99978.81;4965905;28;20270;-66
2022/09/26 03:28:38;;;;;;;10.90;6.33;;;;;;;13.11;78.01;99976.50;4965921;28;20210;-66
2022/09/26 03:31:06;;;;;;;12.27;7.07;;;;;;;13.10;78.34;99975.72;4960512;28;20235;-66
2022/09/26 03:33:34;;;;;;;9.77;5.77;;;;;;;13.08;78.36;99975.06;4981864;28;20625;-66
2022/09/26 03:36:06;;;;;;;9.77;5.70;;;;;;;12.96;79.07;99972.97;4984596;28;20242;-66
2022/09/26 03:38:35;;;;;;;12.30;6.43;;;;;;;12.99;79.30;99961.97;4982362;28;20198;-65
2022/09/26 03:41:03;;;;;;;13.50;6.03;;;;;;;12.80;80.46;99963.25;4980776;28;20210;-66
2022/09/26 03:43:31;;;;;;;11.30;6.37;;;;;;;12.66;81.37;99961.34;4983072;28;20214;-66
2022/09/26 03:46:03;;;;;;;12.07;5.93;;;;;;;12.63;81.57;99945.72;4987336;28;20284;-66
2022/09/26 03:48:31;;;;;;;9.47;5.70;;;;;;;12.67;82.04;99949.66;4988920;28;20210;-67
2022/09/26 03:51:02;;;;;;;12.10;5.87;;;;;;;12.76;81.31;99945.97;4985770;28;20213;-65
2022/09/26 03:53:31;;;;;;;9.63;5.40;;;;;;;12.84;80.49;99945.91;4990463;28;20202;-65
2022/09/26 03:56:05;;;;;;;8.77;5.73;;;;;;;12.87;80.26;99944.75;4984131;28;20226;-66
2022/09/26 03:58:33;;;;;;;10.83;6.03;;;;;;;12.92;79.77;99950.38;4985459;28;20303;-66
2022/09/26 04:01:05;;;;;;;10.40;5.97;;;;;;;12.98;79.62;99944.34;4980293;28;20221;-66
2022/09/26 04:03:34;;;;;;;11.97;6.00;;;;;;;12.94;79.82;99938.53;4984190;28;20217;-66
2022/09/26 04:06:02;;;;;;;9.07;5.23;;;;;;;12.95;80.15;99934.88;4983751;28;20927;-65
2022/09/26 04:08:30;;;;;;;11.80;6.43;;;;;;;13.01;79.76;99923.53;4983882;28;20622;-65
2022/09/26 04:11:02;;;;;;;15.40;5.93;;;;;;;12.83;80.23;99925.66;4979965;28;20210;-66
2022/09/26 04:13:32;;;;;;;9.80;6.13;;;;;;;12.61;81.37;99926.44;4981978;28;20206;-65
2022/09/26 04:16:19;;;;;;;11.87;5.63;;;;;;;12.51;82.28;99916.00;4979747;28;20253;-66
2022/09/26 04:18:48;;;;;;;9.37;5.37;;;;;;;12.50;82.89;99910.84;4981827;28;20232;-66
2022/09/26 04:21:15;;;;;;;9.60;5.57;;;;;;;12.46;83.17;99906.91;4982315;28;20250;-65
2022/09/26 04:23:44;;;;;;;10.23;5.73;;;;;;;12.39;83.75;99902.28;4989435;28;20214;-67
2022/09/26 04:26:14;;;;;;;7.83;5.77;;;;;;;12.34;84.06;99901.97;4981341;28;20214;-66
2022/09/26 04:28:50;;;;;;;11.97;6.53;;;;;;;12.22;84.92;99891.91;4981048;28;20297;-66
2022/09/26 04:31:20;;;;;;;12.53;6.20;;;;;;;12.15;85.28;99893.56;4979038;28;20229;-66
2022/09/26 04:33:47;;;;;;;10.30;6.53;;;;;;;12.09;85.65;99879.16;4979010;28;20257;-66
2022/09/26 04:36:16;;;;;;;14.37;7.57;;;;;;;12.12;86.00;99875.31;4982069;28;20241;-66
2022/09/26 04:38:44;;;;;;;12.63;6.33;;;;;;;12.17;85.95;99870.31;4981970;28;20218;-65
2022/09/26 04:41:13;;;;;;;16.17;7.00;;;;;;;12.21;85.47;99874.28;4985368;28;20688;-65
2022/09/26 04:43:41;;;;;;;12.70;6.43;;;;;;;12.14;86.24;99881.31;4981296;28;20257;-65
2022/09/26 04:46:12;;;;;;;13.40;7.13;;;;;;;12.16;86.18;99876.63;4983155;28;20206;-66
2022/09/26 04:48:48;;;;;;;13.43;6.83;;;;;;;12.17;85.88;99876.44;4983017;28;20835;-64
2022/09/26 04:51:17;;;;;;;11.17;6.30;;;;;;;12.14;86.35;99874.13;4987775;28;20207;-65
2022/09/26 04:53:44;;;;;;;10.00;6.13;;;;;;;12.33;85.89;99880.84;4985441;28;20218;-65
2022/09/26 04:56:14;;;;;;;11.27;6.27;;;;;;;12.53;84.80;99874.13;4984758;28;20238;-66
2022/09/26 04:58:43;;;;;;;13.33;6.90;;;;;;;12.63;83.32;99879.22;4986492;28;20213;-65
2022/09/26 05:01:14;;;;;;;14.37;6.03;;;;;;;12.54;82.85;99866.97;4983849;28;20623;-65
2022/09/26 05:03:43;;;;;;;12.17;5.80;;;;;;;12.47;83.02;99866.00;4984275;28;20224;-65
2022/09/26 05:06:11;;;;;;;13.97;5.57;;;;;;;12.37;83.30;99867.06;4984420;28;20215;-65
2022/09/26 05:08:41;;;;;;;10.60;5.87;;;;;;;12.32;83.50;99869.41;4985475;28;20206;-65
2022/09/26 05:11:09;;;;;;;12.63;6.07;;;;;;;12.24;83.84;99860.63;4985401;28;20584;-66
2022/09/26 05:13:37;;;;;;;13.33;6.00;;;;;;;12.16;83.98;99858.84;4988396;28;20214;-65
2022/09/26 05:16:07;;;;;;;13.43;5.73;;;;;;;12.05;84.78;99856.56;4987421;28;20230;-65
2022/09/26 05:18:38;;;;;;;12.60;6.20;;;;;;;12.04;84.90;99849.63;4988442;28;20293;-65
2022/09/26 05:21:06;;;;;;;8.60;5.53;;;;;;;12.00;85.04;99842.97;4990468;28;20217;-65
2022/09/26 05:26:24;;;;;;;10.30;5.33;;;;;;;11.93;85.03;99842.00;4982815;28;20237;-65
2022/09/26 05:28:54;;;;;;;10.83;5.77;;;;;;;11.90;85.28;99842.34;4988586;28;20691;-65
2022/09/26 05:31:24;;;;;;;11.70;4.93;;;;;;;11.88;85.94;99839.03;4983705;28;20237;-65
2022/09/26 05:33:55;;;;;;;8.13;5.13;;;;;;;11.89;85.77;99843.34;4984410;28;20233;-68
2022/09/26 05:36:23;;;;;;;11.23;5.13;;;;;;;12.02;85.43;99841.81;4983639;28;20236;-65
2022/09/26 05:38:51;;;;;;;9.30;5.13;;;;;;;12.07;84.67;99835.97;4985884;28;20667;-65
2022/09/26 05:41:18;;;;;;;7.47;5.03;;;;;;;12.00;84.37;99832.34;4995239;28;20272;-65
2022/09/26 05:43:47;;;;;;;9.93;5.33;;;;;;;11.92;84.69;99829.72;4990785;28;20268;-65
2022/09/26 05:46:15;;;;;;;10.27;4.67;;;;;;;11.87;84.76;99832.06;4989994;28;20228;-64
2022/09/26 05:48:43;;;;;;;8.83;5.20;;;;;;;11.78;85.87;99830.44;4990853;28;20213;-65
2022/09/26 05:51:14;;;;;;;9.57;5.00;;;;;;;11.80;85.96;99829.25;4993506;28;20283;-64
2022/09/26 05:53:44;;;;;;;12.73;4.77;;;;;;;11.79;86.18;99824.94;4993399;28;20225;-66
2022/09/26 05:56:13;;;;;;;12.27;5.10;;;;;;;11.87;85.89;99827.59;4989750;28;20720;-65
2022/09/26 05:58:46;;;;;;;13.93;5.07;;;;;;;11.87;86.17;99824.09;4982786;28;20201;-65
2022/09/26 06:01:15;;;;;;;8.50;5.07;;;;;;;11.91;85.93;99828.06;4986163;28;20221;-64
2022/09/26 06:03:44;;;;;;;10.90;4.53;;;;;;;11.98;85.64;99826.38;4987746;28;20228;-64
2022/09/26 06:06:15;;;;;;;11.20;4.83;;;;;;;11.97;85.91;99832.69;4984517;28;20655;-65
2022/09/26 06:08:43;;;;;;;9.20;5.00;;;;;;;11.94;86.37;99817.94;4988435;28;20729;-64
2022/09/26 06:11:12;;;;;;;10.60;4.53;;;;;;;11.96;86.25;99821.22;4984355;28;20205;-65
2022/09/26 06:13:42;;;;;;;7.43;4.57;;;;;;;11.96;86.43;99821.22;4986571;28;20600;-66
2022/09/26 06:16:13;;;;;;;6.90;3.87;;;;;;;12.01;86.38;99818.06;4985345;28;20227;-66
2022/09/26 06:18:41;;;;;;;9.10;4.53;;;;;;;12.05;85.63;99808.72;4987004;28;20288;-65
2022/09/26 06:21:12;;;;;;;9.20;4.87;;;;;;;12.14;85.19;99812.19;4986687;28;20224;-65
2022/09/26 06:23:41;;;;;;;8.87;4.80;;;;;;;12.13;84.86;99819.34;4986517;28;20244;-66
2022/09/26 06:26:13;;;;;;;7.90;4.73;;;;;;;12.15;84.82;99808.50;4988762;28;20289;-65
2022/09/26 06:28:41;;;;;;;9.77;4.60;;;;;;;12.20;84.72;99811.50;4987679;28;20221;-66
2022/09/26 06:31:09;;;;;;;10.97;4.50;;;;;;;12.20;84.02;99812.31;4985518;28;20234;-65
2022/09/26 06:33:37;;;;;;;10.70;4.43;;;;;;;12.18;84.21;99818.81;4986817;28;20255;-63
2022/09/26 06:36:07;;;;;;;7.07;4.17;;;;;;;12.18;84.18;99808.19;4986492;28;20233;-63
2022/09/26 06:38:35;;;;;;;11.20;4.03;;;;;;;12.19;83.67;99800.03;4984341;28;20213;-62
2022/09/26 06:41:06;;;;;;;9.73;4.40;;;;;;;12.17;83.87;99798.53;4971379;28;20241;-63
2022/09/26 06:43:34;;;;;;;12.07;4.77;;;;;;;12.14;83.86;99789.06;4970160;28;20220;-63
2022/09/26 06:46:02;;;;;;;7.50;4.40;;;;;;;12.19;83.58;99788.56;4978702;28;20210;-62
2022/09/26 06:48:29;;;;;;;9.77;4.13;;;;;;;12.18;83.30;99779.78;4982331;28;20828;-63
2022/09/26 06:50:59;;;;;;;9.37;3.93;;;;;;;12.18;83.21;99785.09;4987781;28;20237;-63
2022/09/26 06:53:27;;;;;;;11.33;4.87;;;;;;;12.17;83.62;99788.75;4978158;28;20213;-63
2022/09/26 06:55:55;;;;;;;8.73;4.50;;;;;;;12.17;83.38;99783.44;4984133;28;20626;-62
2022/09/26 06:58:24;;;;;;;8.83;4.40;;;;;;;12.12;83.69;99785.78;4985161;28;20629;-63
2022/09/26 07:00:52;;;;;;;10.60;4.43;;;;;;;12.13;83.81;99790.09;4982101;28;20847;-62
2022/09/26 07:03:21;;;;;;;7.40;4.37;;;;;;;12.17;84.15;99783.44;4986321;28;20289;-62
2022/09/26 07:05:50;;;;;;;9.80;4.07;;;;;;;12.30;83.29;99783.69;4984564;28;20230;-64
2022/09/26 07:08:18;;;;;;;10.63;4.63;;;;;;;12.37;82.87;99766.03;4981744;28;20267;-62
2022/09/26 07:10:46;;;;;;;8.60;4.97;;;;;;;12.37;82.66;99768.69;4980894;28;20785;-61
2022/09/26 07:13:15;;;;;;;6.30;3.93;;;;;;;12.41;82.41;99759.34;4988237;28;20229;-65
2022/09/26 07:15:46;;;;;;;13.47;4.57;;;;;;;12.48;83.06;99771.94;4985464;28;20214;-62
2022/09/26 07:18:14;;;;;;;9.00;3.87;;;;;;;12.57;82.77;99769.06;4981930;28;20215;-62
2022/09/26 07:20:46;;;;;;;7.67;3.80;;;;;;;12.70;82.33;99765.78;4984681;28;20367;-63
2022/09/26 07:23:15;;;;;;;13.40;4.70;;;;;;;12.77;82.22;99766.72;4979805;28;20237;-63
2022/09/26 07:25:44;;;;;;;11.03;4.60;;;;;;;12.91;81.73;99765.94;4980389;28;20694;-63
2022/09/26 07:28:13;;;;;;;10.20;4.90;;;;;;;13.00;80.59;99762.19;4981710;28;20206;-63
2022/09/26 07:30:40;;;;;;;12.43;5.03;;;;;;;13.06;80.41;99760.63;4980205;28;20217;-62
2022/09/26 07:33:09;;;;;;;8.57;3.97;;;;;;;13.14;80.03;99757.94;4974191;28;20265;-62
2022/09/26 07:35:37;;;;;;;8.23;4.47;;;;;;;13.27;79.68;99759.97;4980969;28;20214;-63
2022/09/26 07:38:05;;;;;;;8.20;3.40;;;;;;;13.37;78.28;99756.00;4981914;28;20230;-63
2022/09/26 07:40:33;;;;;;;8.43;4.00;;;;;;;13.37;78.67;99761.34;4981758;28;20765;-63
2022/09/26 07:43:01;;;;;;;8.50;4.47;;;;;;;13.47;77.84;99763.72;4983961;28;20210;-62
2022/09/26 07:51:19;;;;;;;7.33;3.80;;;;;;;13.77;76.83;99759.22;4969109;28;22154;-62
2022/09/26 07:53:47;;;;;;;11.27;3.27;;;;;;;13.82;76.07;99756.81;4982081;28;20218;-62
2022/09/26 07:56:15;;;;;;;6.53;3.57;;;;;;;13.84;76.34;99758.28;4981499;28;20651;-63
2022/09/26 07:58:45;;;;;;;7.80;3.13;;;;;;;13.91;76.38;99751.19;4981762;28;20241;-62
2022/09/26 08:01:14;;;;;;;7.93;3.13;;;;;;;14.06;75.33;99758.34;4981038;28;20205;-62
2022/09/26 08:03:46;;;;;;;5.40;2.90;;;;;;;14.20;74.28;99750.28;4980242;28;20217;-63
2022/09/26 08:06:16;;;;;;;6.37;2.53;;;;;;;14.24;73.49;99756.09;4980704;28;20217;-63
2022/09/26 08:08:44;;;;;;;5.70;2.20;;;;;;;14.38;72.62;99751.72;4975853;28;20301;-63
2022/09/26 08:11:14;;;;;;;3.17;1.70;;;;;;;14.50;71.88;99753.72;4982313;28;20216;-63
2022/09/26 08:13:43;;;;;;;5.70;2.40;;;;;;;14.74;70.43;99743.66;4982412;28;21220;-63
2022/09/26 08:16:14;;;;;;;3.60;2.33;;;;;;;14.96;69.49;99747.94;4983047;28;20267;-64
2022/09/26 08:18:43;;;;;;;14.00;2.40;;;;;;;15.07;68.25;99740.22;4983958;28;20213;-63
2022/09/26 08:21:11;;;;;;;5.80;2.27;;;;;;;15.17;66.96;99741.72;4980685;28;20212;-63
2022/09/26 08:23:38;;;;;;;9.10;1.93;;;;;;;15.19;67.78;99734.34;4981895;28;20218;-62
2022/09/26 08:26:07;;;;;;;5.93;2.30;;;;;;;15.41;67.70;99743.94;4980453;28;20216;-64
2022/09/26 08:28:35;;;;;;;9.00;2.30;;;;;;;15.60;65.89;99735.22;4984385;28;20226;-62
2022/09/26 08:31:03;;;;;;;5.70;1.90;;;;;;;15.59;66.27;99735.44;4986708;28;20230;-62
2022/09/26 08:33:34;;;;;;;5.40;2.70;;;;;;;15.66;66.33;99741.63;4987670;28;20395;-63
2022/09/26 08:36:08;;;;;;;5.10;2.40;;;;;;;15.77;66.64;99730.38;4989245;28;20308;-63
2022/09/26 08:38:37;;;;;;;4.30;2.10;;;;;;;15.97;65.99;99725.94;4983582;28;20214;-63
2022/09/26 08:41:21;;;;;;;5.27;2.53;;;;;;;16.05;65.66;99725.75;4986895;28;20207;-64
2022/09/26 08:44:04;;;;;;;8.20;2.77;;;;;;;15.95;65.85;99725.31;4983872;28;20218;-63
2022/09/26 08:46:49;;;;;;;7.27;2.50;;;;;;;15.73;67.00;99727.28;4988316;28;20214;-63
2022/09/26 08:49:50;;;;;;;5.97;2.73;;;;;;;15.61;68.33;99722.69;4988047;28;20205;-62
2022/09/26 08:52:27;;;;;;;5.67;2.60;;;;;;;15.49;68.97;99714.38;4978942;28;20265;-62
2022/09/26 08:54:56;;;;;;;8.03;2.00;;;;;;;15.53;69.47;99714.81;4982364;28;20206;-63
2022/09/26 08:57:34;;;;;;;5.67;2.00;;;;;;;15.54;68.27;99712.00;4985510;28;20230;-64
2022/09/26 09:00:10;;;;;;;3.93;2.10;;;;;;;15.55;67.65;99712.81;4993544;28;20213;-63
2022/09/26 09:02:45;;;;;;;5.60;1.80;;;;;;;15.93;66.67;99713.16;4986371;28;20269;-64
2022/09/26 09:05:18;;;;;;;4.80;1.73;;;;;;;16.77;62.14;99702.81;4984192;28;20217;-64
2022/09/26 09:07:50;;;;;;;12.03;4.77;;;;;;;17.55;58.59;99701.84;4987291;28;20206;-62
2022/09/26 09:10:22;;;;;;;6.13;3.43;;;;;;;17.42;57.87;99698.38;4984302;28;20669;-64
2022/09/26 09:13:00;;;;;;;6.40;2.47;;;;;;;17.01;59.19;99699.50;4978068;28;20821;-62
2022/09/26 09:15:40;;;;;;;13.70;2.73;;;;;;;16.70;60.56;99694.81;4986130;28;20278;-63
2022/09/26 09:18:21;;;;;;;7.37;2.07;;;;;;;16.68;61.00;99691.50;4979106;28;20237;-63
2022/09/26 09:20:57;;;;;;;7.53;1.57;;;;;;;16.73;61.36;99697.06;4977597;28;20229;-65
2022/09/26 09:23:39;;;;;;;5.07;1.43;;;;;;;16.87;60.63;99698.72;4980275;28;20217;-62
2022/09/26 09:26:11;;;;;;;3.33;1.60;;;;;;;16.93;59.72;99692.50;4982261;28;20643;-63
2022/09/26 09:29:16;;;;;;;6.80;2.10;;;;;;;16.87;58.36;99684.50;4981358;28;20241;-63
2022/09/26 09:31:47;;;;;;;3.87;1.50;;;;;;;16.91;58.53;99689.22;4977801;28;20268;-63
2022/09/26 09:34:25;;;;;;;2.57;1.10;;;;;;;16.85;58.28;99684.69;4979858;28;20274;-63
2022/09/26 09:36:57;;;;;;;11.00;1.23;;;;;;;16.83;58.45;99686.75;4980239;28;20481;-63
2022/09/26 09:39:33;;;;;;;4.27;1.37;;;;;;;16.85;58.41;99690.06;4985987;28;20264;-64
2022/09/26 09:42:06;;;;;;;4.57;1.00;;;;;;;16.78;58.38;99673.19;4984352;28;20217;-64
2022/09/26 09:44:41;;;;;;;8.97;1.10;;;;;;;16.77;58.11;99679.56;4986533;28;20352;-64
2022/09/26 09:47:15;;;;;;;3.37;1.10;;;;;;;16.78;57.97;99689.25;4985457;28;20230;-64
2022/09/26 09:49:43;;;;;;;3.83;1.00;;;;;;;16.74;58.39;99679.97;4982955;28;20265;-63
2022/09/26 09:52:25;;;;;;;2.63;1.10;;;;;;;16.71;58.38;99683.03;4987558;28;20210;-64
2022/09/26 09:55:06;;;;;;;2.47;1.30;;;;;;;16.68;59.65;99664.72;4983660;28;20265;-64
2022/09/26 09:57:53;;;;;;;4.83;1.70;;;;;;;16.60;60.67;99664.09;4985327;28;20281;-64
2022/09/26 10:00:22;;;;;;;3.50;1.40;;;;;;;16.55;61.22;99662.84;4985775;28;20202;-64
2022/09/26 10:02:59;;;;;;;4.80;1.30;;;;;;;16.53;61.49;99661.41;4986426;28;20214;-63
2022/09/26 10:05:40;;;;;;;3.13;1.43;;;;;;;16.59;61.50;99651.72;4984530;28;20304;-64
2022/09/26 10:08:12;;;;;;;4.90;1.60;;;;;;;16.65;61.16;99635.69;4986163;28;20200;-64
2022/09/26 10:10:47;;;;;;;5.60;1.60;;;;;;;16.74;59.84;99641.66;4986835;28;20242;-65
2022/09/26 10:13:16;;;;;;;3.43;1.30;;;;;;;16.78;59.71;99632.19;4990412;28;20549;-65
2022/09/26 10:15:56;;;;;;;3.27;1.23;;;;;;;16.84;59.67;99634.84;4989799;28;20210;-66
2022/09/26 10:18:24;;;;;;;2.57;1.33;;;;;;;16.96;59.74;99632.38;4981433;28;20216;-67
2022/09/26 10:20:56;;;;;;;3.53;1.30;;;;;;;17.06;59.23;99626.56;4981760;28;20246;-68
2022/09/26 10:23:30;;;;;;;3.63;1.40;;;;;;;17.07;58.88;99628.19;4986174;28;20210;-68
2022/09/26 10:26:02;;;;;;;2.67;1.47;;;;;;;17.05;57.69;99627.59;4980688;28;20210;-66
2022/09/26 10:28:34;;;;;;;3.60;1.00;;;;;;;17.09;57.41;99623.47;4986720;28;20332;-65
2022/09/26 10:31:07;;;;;;;2.40;0.90;;;;;;;17.21;56.33;99619.09;4986108;28;20710;-66
2022/09/26 10:33:37;;;;;;;3.87;1.13;;;;;;;17.28;55.73;99603.81;4968793;28;20235;-65
2022/09/26 10:36:18;;;;;;;3.30;0.90;;;;;;;17.44;54.92;99597.97;4963749;28;20206;-67
2022/09/26 10:41:45;;;;;;;4.00;0.90;;;;;;;17.74;54.83;99600.13;4975351;28;20210;-66
2022/09/26 10:44:25;;;;;;;4.63;1.10;;;;;;;18.90;51.75;99593.19;4971676;28;21096;-67
2022/09/26 10:46:58;;;;;;;2.13;0.87;;;;;;;19.31;50.68;99599.75;4970161;28;20301;-67
2022/09/26 10:49:33;;;;;;;4.90;0.90;;;;;;;19.44;50.57;99594.19;4965355;28;20250;-65
2022/09/26 10:52:13;;;;;;;2.83;0.80;;;;;;;19.52;49.76;99597.44;4963644;28;20237;-65
2022/09/26 10:54:54;;;;;;;5.57;0.97;;;;;;;19.29;49.46;99599.16;4963456;28;21039;-65
2022/09/26 10:57:28;;;;;;;4.17;0.77;;;;;;;19.04;50.04;99594.69;4970027;28;20303;-66
2022/09/26 10:59:59;;;;;;;2.47;0.90;;;;;;;18.90;49.97;99598.56;4970956;28;20285;-66
2022/09/26 11:02:28;;;;;;;5.50;1.20;;;;;;;18.88;50.49;99589.91;4976169;28;20214;-66
2022/09/26 11:07:48;;;;;;;7.60;1.17;;;;;;;18.46;51.87;99590.72;4985380;28;20206;-65
2022/09/26 11:10:23;;;;;;;3.37;0.90;;;;;;;18.25;51.74;99595.44;4973564;28;20218;-64
2022/09/26 11:12:58;;;;;;;1.73;0.73;;;;;;;18.12;51.77;99584.00;4972194;28;20776;-63
2022/09/26 11:15:27;;;;;;;3.97;1.00;;;;;;;17.94;52.89;99587.41;4975617;28;20217;-64
2022/09/26 11:17:55;;;;;;;1.57;0.90;;;;;;;18.07;52.70;99587.31;4967304;28;20762;-64
2022/09/26 11:20:39;;;;;;;2.47;1.10;;;;;;;18.29;50.77;99575.19;4960853;28;20247;-64
2022/09/26 11:23:16;;;;;;;2.63;1.03;;;;;;;18.36;49.86;99573.25;4968690;28;20565;-64
2022/09/26 11:25:55;;;;;;;4.77;1.13;;;;;;;18.33;49.87;99575.53;4967041;28;20464;-64
2022/09/26 11:28:33;;;;;;;2.37;1.03;;;;;;;18.34;49.93;99577.19;4961400;28;20858;-64
2022/09/26 11:31:04;;;;;;;1.90;0.90;;;;;;;18.30;50.97;99555.31;4962286;28;20222;-65
2022/09/26 11:33:50;;;;;;;2.53;1.10;;;;;;;18.27;50.15;99555.78;4985991;28;20248;-64
2022/09/26 11:36:31;;;;;;;2.10;1.03;;;;;;;18.24;50.96;99555.38;4985089;28;20198;-64
2022/09/26 11:39:06;;;;;;;2.03;0.90;;;;;;;18.31;49.78;99540.88;4989774;28;20687;-64
2022/09/26 11:41:45;;;;;;;2.83;0.97;;;;;;;18.40;50.43;99538.72;4986230;28;21212;-64
2022/09/26 11:44:41;;;;;;;4.60;0.70;;;;;;;18.61;51.17;99537.53;4983664;28;20225;-65
2022/09/26 11:47:35;;;;;;;4.07;0.97;;;;;;;18.72;49.82;99524.19;4970560;28;20258;-65
2022/09/26 11:50:22;;;;;;;6.00;1.27;;;;;;;19.66;46.87;99522.78;4980636;28;20674;-63
2022/09/26 11:53:05;;;;;;;3.33;1.00;;;;;;;19.85;46.56;99510.91;4983225;28;20205;-65
2022/09/26 11:55:44;;;;;;;2.70;0.70;;;;;;;19.78;46.75;99507.50;4983191;28;20205;-65
2022/09/26 11:58:23;;;;;;;2.77;0.90;;;;;;;19.52;47.55;99507.91;4980421;28;20209;-64
2022/09/26 12:01:04;;;;;;;4.90;1.07;;;;;;;19.37;47.95;99504.75;4102614;28;10000495;-64
2022/09/26 12:04:00;;;;;;;1.93;0.90;;;;;;;19.23;47.94;99508.69;4965885;28;20210;-64
2022/09/26 12:06:33;;;;;;;5.00;1.20;;;;;;;19.05;47.73;99502.28;4985784;28;20206;-64